createdAt,value
2019-03-22T00:01:53.857Z,75.25
2019-03-22T00:04:23.538Z,75.45
2019-03-22T00:06:53.623Z,75.22
2019-03-22T00:09:23.640Z,75.79
2019-03-22T00:11:53.358Z,76.01
2019-03-22T00:14:23.460Z,75.97
2019-03-22T00:16:53.169Z,75.72
2019-03-22T00:19:23.203Z,75.72
2019-03-22T00:21:52.952Z,75.42
2019-03-22T00:24:22.613Z,75.38
2019-03-22T00:26:52.597Z,76.12
2019-03-22T00:29:22.623Z,76.46
2019-03-22T00:31:52.302Z,76.27
2019-03-22T00:34:22.078Z,75.48
2019-03-22T00:36:51.785Z,75.36
2019-03-22T00:39:22.044Z,75.54
2019-03-22T00:41:53.377Z,76.03
2019-03-22T00:44:23.828Z,76.47
2019-03-22T00:46:54.046Z,76.89
2019-03-22T00:49:23.768Z,76.62
2019-03-22T00:51:53.495Z,76.62
2019-03-22T00:54:23.587Z,76.79
2019-03-22T00:56:55.046Z,76.60
2019-03-22T00:59:25.138Z,76.35
2019-03-22T01:01:54.877Z,76.33
2019-03-22T01:04:24.619Z,76.55
2019-03-22T01:06:54.317Z,76.87
2019-03-22T01:09:24.033Z,77.27
2019-03-22T01:11:53.724Z,77.50
2019-03-22T01:14:23.527Z,77.34
2019-03-22T01:16:53.225Z,77.48
2019-03-22T01:19:23.356Z,77.67
2019-03-22T01:21:53.639Z,77.66
2019-03-22T01:24:23.316Z,77.20
2019-03-22T01:26:53.041Z,76.88
2019-03-22T01:29:22.739Z,76.98
2019-03-22T01:31:52.467Z,77.34
2019-03-22T01:34:22.418Z,77.47
2019-03-22T01:36:52.090Z,77.53
2019-03-22T01:39:22.200Z,77.07
2019-03-22T01:41:51.933Z,76.96
2019-03-22T01:44:21.646Z,77.25
2019-03-22T01:46:51.354Z,77.43
2019-03-22T01:49:21.497Z,77.84
2019-03-22T01:51:51.248Z,77.87
2019-03-22T01:54:20.932Z,77.96
2019-03-22T01:56:51.089Z,78.08
2019-03-22T01:59:21.202Z,78.15
2019-03-22T02:01:50.911Z,77.96
2019-03-22T02:04:20.823Z,77.57
2019-03-22T02:06:50.538Z,77.92
2019-03-22T02:09:20.779Z,77.97
2019-03-22T02:11:50.752Z,78.04
2019-03-22T02:14:20.506Z,78.05
2019-03-22T02:16:50.217Z,78.10
2019-03-22T02:19:19.883Z,78.24
2019-03-22T02:21:49.953Z,78.50
2019-03-22T02:24:19.625Z,78.68
2019-03-22T02:26:49.728Z,78.75
2019-03-22T02:29:19.409Z,78.85
2019-03-22T02:31:49.560Z,78.86
2019-03-22T02:34:19.233Z,78.82
2019-03-22T02:36:49.496Z,78.66
2019-03-22T02:39:19.221Z,78.77
2019-03-22T02:41:48.962Z,78.74
2019-03-22T02:44:18.731Z,78.69
2019-03-22T02:46:48.718Z,78.61
2019-03-22T02:49:18.980Z,78.68
2019-03-22T02:51:48.962Z,78.55
2019-03-22T02:54:19.042Z,78.44
2019-03-22T02:56:50.609Z,78.08
2019-03-22T02:59:21.097Z,78.31
2019-03-22T03:01:50.995Z,78.61
2019-03-22T03:04:20.676Z,78.67
2019-03-22T03:06:50.443Z,78.56
2019-03-22T03:09:20.187Z,78.38
2019-03-22T03:11:50.263Z,78.26
2019-03-22T03:14:19.990Z,77.96
2019-03-22T03:16:49.967Z,78.04
2019-03-22T03:19:20.029Z,78.27
2019-03-22T03:21:49.729Z,78.41
2019-03-22T03:24:19.410Z,78.25
2019-03-22T03:26:49.144Z,78.04
2019-03-22T03:29:18.873Z,78.46
2019-03-22T03:31:49.314Z,78.71
2019-03-22T03:34:18.993Z,78.91
2019-03-22T03:36:48.790Z,79.02
2019-03-22T03:39:18.786Z,79.00
2019-03-22T03:41:48.524Z,79.01
2019-03-22T03:44:18.287Z,79.00
2019-03-22T03:46:48.038Z,78.93
2019-03-22T03:49:17.827Z,78.63
2019-03-22T03:51:47.858Z,78.65
2019-03-22T03:54:17.987Z,78.55
2019-03-22T03:56:48.117Z,78.49
2019-03-22T03:59:17.841Z,78.38
2019-03-22T04:01:47.638Z,78.82
2019-03-22T04:04:17.349Z,79.07
2019-03-22T04:06:47.063Z,79.18
2019-03-22T04:09:17.009Z,79.22
2019-03-22T04:11:47.430Z,79.09
2019-03-22T04:14:17.155Z,78.99
2019-03-22T04:16:47.159Z,79.01
2019-03-22T04:19:17.018Z,78.77
2019-03-22T04:21:46.682Z,79.11
2019-03-22T04:24:16.378Z,79.31
2019-03-22T04:26:46.167Z,79.46
2019-03-22T04:29:16.242Z,79.76
2019-03-22T04:31:46.104Z,79.88
2019-03-22T04:34:16.129Z,80.05
2019-03-22T04:36:45.852Z,80.21
2019-03-22T04:39:15.921Z,80.38
2019-03-22T04:41:45.914Z,80.36
2019-03-22T04:44:16.041Z,80.42
2019-03-22T04:46:46.444Z,80.50
2019-03-22T04:49:16.580Z,80.49
2019-03-22T04:51:46.897Z,80.44
2019-03-22T04:54:17.964Z,80.34
2019-03-22T04:56:48.967Z,80.13
2019-03-22T04:59:19.658Z,79.62
2019-03-22T05:01:51.271Z,79.43
2019-03-22T05:04:21.492Z,79.35
2019-03-22T05:06:52.930Z,79.67
2019-03-22T05:09:24.517Z,79.91
2019-03-22T05:14:31.237Z,80.15
2019-03-22T05:17:01.061Z,79.92
2019-03-22T05:19:32.645Z,79.54
2019-03-22T05:22:03.527Z,79.56
2019-03-22T05:24:35.072Z,79.77
2019-03-22T05:27:06.736Z,79.76
2019-03-22T05:29:39.020Z,79.74
2019-03-22T05:32:13.926Z,79.90
2019-03-22T05:34:44.203Z,80.01
2019-03-22T05:37:13.884Z,79.88
2019-03-22T05:39:44.378Z,79.88
2019-03-22T05:42:14.196Z,79.74
2019-03-22T05:44:44.551Z,79.79
2019-03-22T05:47:14.543Z,79.85
2019-03-22T05:49:44.422Z,79.95
2019-03-22T05:52:14.171Z,79.56
2019-03-22T05:54:43.943Z,79.16
2019-03-22T05:57:14.187Z,79.24
2019-03-22T05:59:44.427Z,79.26
2019-03-22T06:02:14.516Z,79.35
2019-03-22T06:04:44.244Z,79.73
2019-03-22T06:07:14.311Z,79.70
2019-03-22T06:09:44.024Z,79.87
2019-03-22T06:12:13.771Z,80.00
2019-03-22T06:14:44.240Z,79.97
2019-03-22T06:17:14.246Z,79.85
2019-03-22T06:19:44.078Z,80.06
2019-03-22T06:22:14.013Z,80.18
2019-03-22T06:24:43.683Z,80.25
2019-03-22T06:27:13.755Z,80.29
2019-03-22T06:29:53.571Z,80.42
2019-03-22T06:32:15.603Z,80.49
2019-03-22T06:34:45.347Z,80.41
2019-03-22T06:37:15.037Z,80.40
2019-03-22T06:39:44.850Z,80.39
2019-03-22T06:42:14.563Z,80.37
2019-03-22T06:44:44.967Z,80.24
2019-03-22T06:47:14.691Z,79.79
2019-03-22T06:49:44.818Z,79.45
2019-03-22T06:52:15.047Z,79.56
2019-03-22T06:54:45.134Z,79.70
2019-03-22T06:57:15.624Z,79.64
2019-03-22T06:59:45.393Z,79.20
2019-03-22T07:02:15.832Z,78.69
2019-03-22T07:04:45.566Z,78.52
2019-03-22T07:07:15.298Z,78.10
2019-03-22T07:09:45.337Z,77.11
2019-03-22T07:12:15.065Z,77.27
2019-03-22T07:14:45.077Z,77.75
2019-03-22T07:17:15.094Z,77.62
2019-03-22T07:19:44.810Z,77.35
2019-03-22T07:22:14.734Z,77.00
2019-03-22T07:24:44.442Z,76.87
2019-03-22T07:27:14.961Z,76.79
2019-03-22T07:29:46.556Z,76.42
2019-03-22T07:32:16.365Z,76.31
2019-03-22T07:34:46.039Z,76.30
2019-03-22T07:37:15.736Z,76.33
2019-03-22T07:39:45.686Z,75.05
2019-03-22T07:42:17.687Z,75.39
2019-03-22T07:44:47.503Z,73.35
2019-03-22T07:47:17.244Z,74.05
2019-03-22T07:49:47.501Z,74.45
2019-03-22T07:52:17.652Z,73.71
2019-03-22T07:54:47.942Z,74.05
2019-03-22T07:57:17.741Z,73.83
2019-03-22T07:59:47.567Z,73.66
2019-03-22T08:02:17.697Z,72.88
2019-03-22T08:04:47.444Z,72.85
2019-03-22T08:07:17.218Z,71.75
2019-03-22T08:09:47.215Z,70.97
2019-03-22T08:12:19.499Z,71.28
2019-03-22T08:14:48.853Z,72.14
2019-03-22T08:17:18.823Z,72.24
2019-03-22T08:19:48.909Z,70.81
2019-03-22T08:22:19.025Z,71.96
2019-03-22T08:24:49.184Z,71.88
2019-03-22T08:27:19.418Z,70.80
2019-03-22T08:29:49.205Z,69.77
2019-03-22T08:32:19.257Z,69.69
2019-03-22T08:34:49.340Z,69.47
2019-03-22T08:37:19.469Z,69.35
2019-03-22T08:39:49.353Z,68.72
2019-03-22T08:42:19.115Z,69.21
2019-03-22T08:44:49.588Z,68.27
2019-03-22T08:47:19.292Z,65.61
2019-03-22T08:49:49.670Z,65.81
2019-03-22T08:52:19.496Z,67.33
2019-03-22T08:54:49.233Z,67.56
2019-03-22T08:57:19.117Z,67.69
2019-03-22T08:59:48.882Z,68.35
2019-03-22T09:02:18.953Z,68.84
2019-03-22T09:04:48.975Z,68.40
2019-03-22T09:07:18.775Z,68.11
2019-03-22T09:09:48.656Z,68.35
2019-03-22T09:12:18.444Z,68.08
2019-03-22T09:14:48.298Z,68.61
2019-03-22T09:17:18.133Z,68.03
2019-03-22T09:19:47.910Z,68.78
2019-03-22T09:22:19.746Z,69.10
2019-03-22T09:24:49.872Z,69.15
2019-03-22T09:27:19.979Z,69.25
2019-03-22T09:29:49.867Z,69.44
2019-03-22T09:32:19.661Z,69.65
2019-03-22T09:34:49.424Z,68.71
2019-03-22T09:37:19.957Z,68.71
2019-03-22T09:39:49.736Z,69.00
2019-03-22T09:42:19.907Z,68.10
2019-03-22T09:44:49.717Z,68.00
2019-03-22T09:47:19.485Z,67.12
2019-03-22T09:49:51.244Z,67.52
2019-03-22T09:52:21.390Z,67.01
2019-03-22T09:54:51.613Z,66.82
2019-03-22T09:57:22.075Z,66.58
2019-03-22T09:59:52.152Z,66.38
2019-03-22T10:02:22.060Z,66.48
2019-03-22T10:04:51.865Z,66.71
2019-03-22T10:07:21.636Z,66.67
2019-03-22T10:09:51.486Z,65.07
2019-03-22T10:12:22.067Z,65.83
2019-03-22T10:14:52.248Z,65.23
2019-03-22T10:17:22.425Z,64.81
2019-03-22T10:19:52.121Z,64.20
2019-03-22T10:22:22.163Z,64.18
2019-03-22T10:24:52.199Z,64.13
2019-03-22T10:27:21.905Z,64.19
2019-03-22T10:29:51.944Z,64.15
2019-03-22T10:32:23.823Z,63.53
2019-03-22T10:34:53.133Z,63.82
2019-03-22T10:37:23.334Z,63.13
2019-03-22T10:39:53.058Z,63.04
2019-03-22T10:42:23.079Z,61.79
2019-03-22T10:44:53.172Z,61.43
2019-03-22T10:47:24.399Z,61.75
2019-03-22T10:49:54.428Z,61.51
2019-03-22T10:52:24.154Z,60.98
2019-03-22T10:54:53.918Z,61.43
2019-03-22T10:57:23.620Z,61.12
2019-03-22T10:59:53.364Z,60.53
2019-03-22T11:02:23.781Z,59.46
2019-03-22T11:04:53.477Z,59.98
2019-03-22T11:07:23.202Z,60.36
2019-03-22T11:09:53.300Z,59.53
2019-03-22T11:12:23.076Z,59.00
2019-03-22T11:14:52.800Z,58.60
2019-03-22T11:17:22.497Z,58.52
2019-03-22T11:19:52.188Z,58.13
2019-03-22T11:22:22.757Z,58.83
2019-03-22T11:24:52.463Z,58.54
2019-03-22T11:27:22.188Z,57.66
2019-03-22T11:29:51.924Z,57.06
2019-03-22T11:32:21.981Z,55.88
2019-03-22T11:34:52.409Z,55.35
2019-03-22T11:37:22.160Z,55.35
2019-03-22T11:39:51.935Z,55.97
2019-03-22T11:42:21.620Z,53.43
2019-03-22T11:44:51.376Z,51.28
2019-03-22T11:47:21.479Z,52.24
2019-03-22T11:49:51.434Z,50.81
2019-03-22T11:52:21.168Z,50.31
2019-03-22T11:54:50.888Z,49.07
2019-03-22T11:57:21.452Z,48.97
2019-03-22T11:59:51.191Z,48.87
2019-03-22T12:02:22.570Z,48.35
2019-03-22T12:04:52.508Z,49.03
2019-03-22T12:07:22.555Z,48.32
2019-03-22T12:09:52.255Z,47.43
2019-03-22T12:12:21.984Z,47.54
2019-03-22T12:14:51.711Z,47.15
2019-03-22T12:17:21.801Z,46.86
2019-03-22T12:19:51.887Z,45.64
2019-03-22T12:22:22.138Z,45.57
2019-03-22T12:24:51.884Z,46.38
2019-03-22T12:27:21.697Z,46.48
2019-03-22T12:29:53.426Z,46.36
2019-03-22T12:32:31.934Z,45.04
2019-03-22T12:34:55.097Z,45.77
2019-03-22T12:37:24.894Z,46.06
2019-03-22T12:39:54.588Z,45.28
2019-03-22T12:42:24.571Z,45.62
2019-03-22T12:44:54.683Z,44.69
2019-03-22T12:47:24.749Z,44.14
2019-03-22T12:49:54.575Z,44.10
2019-03-22T12:52:24.332Z,45.47
2019-03-22T12:54:54.100Z,43.10
2019-03-22T12:57:23.891Z,43.91
2019-03-22T12:59:54.000Z,42.69
2019-03-22T13:02:23.717Z,42.85
2019-03-22T13:04:54.580Z,43.71
2019-03-22T13:07:24.729Z,43.36
2019-03-22T13:09:54.847Z,43.29
2019-03-22T13:12:24.658Z,43.75
2019-03-22T13:14:56.670Z,42.64
2019-03-22T13:17:26.646Z,43.52
2019-03-22T13:19:56.562Z,44.21
2019-03-22T13:22:27.255Z,43.41
2019-03-22T13:24:58.601Z,42.91
2019-03-22T13:27:28.896Z,43.27
2019-03-22T13:29:59.123Z,42.33
2019-03-22T13:32:28.930Z,42.38
2019-03-22T13:34:59.538Z,42.86
2019-03-22T13:37:29.631Z,43.01
2019-03-22T13:39:59.290Z,42.58
2019-03-22T13:42:29.084Z,42.35
2019-03-22T13:44:59.271Z,42.58
2019-03-22T13:47:29.421Z,41.71
2019-03-22T13:49:59.112Z,42.21
2019-03-22T13:52:29.016Z,41.19
2019-03-22T13:54:58.763Z,40.59
2019-03-22T13:57:28.784Z,41.46
2019-03-22T13:59:58.658Z,40.11
2019-03-22T14:02:28.357Z,39.86
2019-03-22T14:04:58.107Z,40.81
2019-03-22T14:07:27.804Z,40.90
2019-03-22T14:09:57.538Z,41.09
2019-03-22T14:12:36.636Z,40.65
2019-03-22T14:14:58.813Z,40.92
2019-03-22T14:17:28.524Z,39.19
2019-03-22T14:19:58.562Z,39.64
2019-03-22T14:22:28.414Z,39.71
2019-03-22T14:24:58.613Z,38.97
2019-03-22T14:27:28.318Z,40.43
2019-03-22T14:29:58.207Z,40.50
2019-03-22T14:32:28.631Z,39.85
2019-03-22T14:34:58.342Z,39.54
2019-03-22T14:37:28.129Z,40.83
2019-03-22T14:39:57.847Z,40.16
2019-03-22T14:42:29.553Z,39.29
2019-03-22T14:45:00.347Z,39.14
2019-03-22T14:47:30.807Z,39.21
2019-03-22T14:50:01.519Z,39.67
2019-03-22T14:52:31.288Z,40.40
2019-03-22T14:55:01.593Z,39.80
2019-03-22T14:57:31.349Z,39.01
2019-03-22T15:00:03.063Z,39.34
2019-03-22T15:02:32.757Z,39.62
2019-03-22T15:05:02.471Z,39.78
2019-03-22T15:07:32.325Z,40.16
2019-03-22T15:10:02.053Z,40.72
2019-03-22T15:12:32.198Z,38.79
2019-03-22T15:15:23.609Z,39.99
2019-03-22T15:18:15.363Z,38.44
2019-03-22T15:21:02.903Z,38.87
2019-03-22T15:24:03.122Z,38.92
2019-03-22T15:26:39.433Z,39.43
2019-03-22T15:29:38.431Z,40.39
2019-03-22T15:32:26.076Z,39.92
2019-03-22T15:35:13.412Z,39.92
2019-03-22T15:38:02.091Z,39.76
2019-03-22T15:40:32.195Z,38.60
2019-03-22T15:43:01.876Z,39.63
2019-03-22T15:45:31.636Z,39.60
2019-03-22T15:48:01.360Z,40.03
2019-03-22T15:50:31.052Z,40.54
2019-03-22T15:53:00.854Z,39.71
2019-03-22T15:55:30.874Z,40.20
2019-03-22T15:58:01.563Z,40.71
2019-03-22T16:00:31.380Z,40.46
2019-03-22T16:03:01.111Z,39.12
2019-03-22T16:05:30.786Z,39.08
2019-03-22T16:08:01.272Z,40.33
2019-03-22T16:10:31.328Z,39.80
2019-03-22T16:13:01.316Z,39.43
2019-03-22T16:15:31.000Z,40.64
2019-03-22T16:18:00.712Z,40.79
2019-03-22T16:20:30.610Z,41.46
2019-03-22T16:23:00.650Z,41.81
2019-03-22T16:25:30.436Z,41.70
2019-03-22T16:28:00.211Z,41.78
2019-03-22T16:30:29.878Z,40.81
2019-03-22T16:32:59.919Z,41.22
2019-03-22T16:35:29.917Z,42.01
2019-03-22T16:37:59.630Z,40.58
2019-03-22T16:40:29.396Z,42.42
2019-03-22T16:42:59.082Z,42.25
2019-03-22T16:45:54.076Z,42.41
2019-03-22T16:48:23.803Z,41.46
2019-03-22T16:50:54.024Z,42.51
2019-03-22T16:53:23.689Z,42.45
2019-03-22T16:55:53.429Z,42.75
2019-03-22T16:58:23.558Z,43.36
2019-03-22T17:00:53.542Z,42.79
2019-03-22T17:03:23.287Z,43.36
2019-03-22T17:05:53.327Z,43.21
2019-03-22T17:08:23.055Z,43.43
2019-03-22T17:10:52.757Z,43.55
2019-03-22T17:13:22.472Z,44.27
2019-03-22T17:15:52.551Z,44.32
2019-03-22T17:18:22.363Z,44.04
2019-03-22T17:20:52.604Z,44.25
2019-03-22T17:23:22.612Z,44.73
2019-03-22T17:25:52.508Z,45.67
2019-03-22T17:28:22.414Z,46.45
2019-03-22T17:30:52.104Z,47.54
2019-03-22T17:33:21.815Z,49.14
2019-03-22T17:35:52.306Z,49.78
2019-03-22T17:38:22.027Z,50.27
2019-03-22T17:40:52.029Z,50.83
2019-03-22T17:43:21.777Z,51.56
2019-03-22T17:45:52.170Z,51.86
2019-03-22T17:48:21.929Z,51.54
2019-03-22T17:50:51.604Z,50.30
2019-03-22T17:53:22.212Z,50.88
2019-03-22T17:55:52.241Z,52.27
2019-03-22T17:58:22.121Z,52.81
2019-03-22T18:00:52.281Z,52.43
2019-03-22T18:03:22.325Z,52.62
2019-03-22T18:05:52.023Z,52.83
2019-03-22T18:08:22.030Z,52.89
2019-03-22T18:10:51.707Z,53.57
2019-03-22T18:13:21.727Z,54.83
2019-03-22T18:15:51.538Z,55.11
2019-03-22T18:18:21.550Z,54.75
2019-03-22T18:20:51.630Z,55.66
2019-03-22T18:23:21.621Z,55.97
2019-03-22T18:25:51.562Z,55.47
2019-03-22T18:28:21.559Z,55.37
2019-03-22T18:30:51.680Z,55.54
2019-03-22T18:33:21.816Z,56.17
2019-03-22T18:35:51.556Z,56.79
2019-03-22T18:38:21.809Z,58.04
2019-03-22T18:40:51.875Z,58.11
2019-03-22T18:43:21.999Z,58.47
2019-03-22T18:45:51.744Z,58.56
2019-03-22T18:48:22.931Z,59.22
2019-03-22T18:50:56.627Z,59.54
2019-03-22T18:53:24.428Z,59.26
2019-03-22T18:55:54.165Z,59.67
2019-03-22T18:58:24.013Z,59.12
2019-03-22T19:00:53.783Z,59.64
2019-03-22T19:03:23.907Z,60.02
2019-03-22T19:05:53.966Z,60.30
2019-03-22T19:08:24.281Z,60.71
2019-03-22T19:10:54.216Z,61.02
2019-03-22T19:13:30.665Z,61.39
2019-03-22T19:15:55.460Z,61.37
2019-03-22T19:18:25.611Z,61.78
2019-03-22T19:20:55.767Z,61.62
2019-03-22T19:23:25.546Z,61.93
2019-03-22T19:25:55.250Z,61.96
2019-03-22T19:28:25.694Z,62.01
2019-03-22T19:30:55.448Z,62.01
2019-03-22T19:33:25.219Z,62.23
2019-03-22T19:35:56.083Z,62.29
2019-03-22T19:38:26.152Z,62.22
2019-03-22T19:40:56.253Z,62.29
2019-03-22T19:43:26.403Z,62.31
2019-03-22T19:45:56.287Z,62.81
2019-03-22T19:48:27.552Z,63.03
2019-03-22T19:50:57.696Z,63.41
2019-03-22T19:53:27.526Z,63.73
2019-03-22T19:55:57.670Z,63.91
2019-03-22T19:58:27.356Z,62.35
2019-03-22T20:00:57.106Z,62.51
2019-03-22T20:03:27.074Z,61.88
2019-03-22T20:05:56.854Z,61.54
2019-03-22T20:08:26.510Z,61.75
2019-03-22T20:10:56.979Z,62.18
2019-03-22T20:13:26.689Z,62.69
2019-03-22T20:15:56.469Z,62.45
2019-03-22T20:18:26.217Z,62.53
2019-03-22T20:20:57.201Z,63.05
2019-03-22T20:23:26.910Z,62.46
2019-03-22T20:25:56.602Z,62.14
2019-03-22T20:28:26.317Z,61.89
2019-03-22T20:30:56.065Z,62.14
2019-03-22T20:33:25.824Z,62.74
2019-03-22T20:35:55.890Z,62.74
2019-03-22T20:38:25.773Z,62.71
2019-03-22T20:40:55.478Z,62.88
2019-03-22T20:43:25.193Z,62.90
2019-03-22T20:45:55.257Z,62.72
2019-03-22T20:48:24.954Z,62.64
2019-03-22T20:50:54.981Z,62.52
2019-03-22T20:53:24.796Z,62.66
2019-03-22T20:55:54.507Z,62.55
2019-03-22T20:58:24.273Z,62.83
2019-03-22T21:00:54.237Z,63.17
2019-03-22T21:03:24.012Z,63.05
2019-03-22T21:05:53.684Z,62.96
2019-03-22T21:08:23.466Z,63.31
2019-03-22T21:10:53.215Z,62.68
2019-03-22T21:13:22.977Z,62.77
2019-03-22T21:15:52.661Z,63.29
2019-03-22T21:18:22.762Z,63.10
2019-03-22T21:20:52.878Z,63.56
2019-03-22T21:23:22.637Z,63.36
2019-03-22T21:25:52.665Z,63.57
2019-03-22T21:28:22.436Z,63.97
2019-03-22T21:30:52.155Z,63.89
2019-03-22T21:33:22.227Z,63.35
2019-03-22T21:35:51.928Z,63.66
2019-03-22T21:38:24.066Z,63.85
2019-03-22T21:40:54.389Z,64.05
2019-03-22T21:43:24.116Z,64.25
2019-03-22T21:45:54.019Z,64.44
2019-03-22T21:48:23.769Z,64.62
2019-03-22T21:50:53.504Z,64.44
2019-03-22T21:53:23.505Z,64.29
2019-03-22T21:55:54.457Z,64.00
2019-03-22T21:58:24.554Z,64.00
2019-03-22T22:00:54.265Z,64.07
2019-03-22T22:03:23.961Z,64.43
2019-03-22T22:05:53.699Z,64.23
2019-03-22T22:08:23.456Z,64.26
2019-03-22T22:10:59.745Z,64.30
2019-03-22T22:13:24.686Z,63.88
2019-03-22T22:15:54.461Z,63.74
2019-03-22T22:18:24.624Z,63.25
2019-03-22T22:20:54.376Z,63.25
2019-03-22T22:23:24.173Z,63.02
2019-03-22T22:25:54.008Z,63.18
2019-03-22T22:28:24.041Z,63.97
2019-03-22T22:30:53.844Z,64.71
2019-03-22T22:33:23.844Z,65.22
2019-03-22T22:35:58.628Z,65.56
2019-03-22T22:38:25.082Z,66.50
2019-03-22T22:40:54.743Z,66.96
2019-03-22T22:43:25.180Z,67.67
2019-03-22T22:45:54.916Z,68.39
2019-03-22T22:48:25.035Z,69.00
2019-03-22T22:50:55.027Z,69.44
2019-03-22T22:53:24.818Z,69.77
2019-03-22T22:55:54.854Z,70.29
2019-03-22T22:58:24.593Z,71.14
2019-03-22T23:00:54.416Z,72.41
2019-03-22T23:03:24.140Z,73.17
2019-03-22T23:05:54.594Z,74.26
2019-03-22T23:08:24.319Z,75.51
2019-03-22T23:10:54.373Z,76.06
2019-03-22T23:13:24.076Z,76.29
2019-03-22T23:15:54.617Z,76.55
2019-03-22T23:18:24.599Z,77.31
2019-03-22T23:20:54.333Z,77.55
2019-03-22T23:23:24.093Z,77.81
2019-03-22T23:25:54.469Z,77.80
2019-03-22T23:28:24.612Z,77.77
2019-03-22T23:30:54.746Z,77.95
2019-03-22T23:33:24.823Z,77.83
2019-03-22T23:35:54.539Z,77.47
2019-03-22T23:38:24.963Z,77.33
2019-03-22T23:40:55.048Z,77.32
2019-03-22T23:43:25.148Z,77.27
2019-03-22T23:45:55.150Z,77.15
2019-03-22T23:48:25.995Z,77.09
2019-03-22T23:50:56.121Z,77.13
2019-03-22T23:53:26.604Z,77.16
2019-03-22T23:55:56.339Z,77.14
2019-03-22T23:58:26.128Z,76.72
